Time,TemperatureF,DewpointF,PressureIn,WindDirection,WindDirectionDegrees,WindSpeedMPH,WindSpeedGustMPH,Humidity,HourlyPrecipIn,Conditions,Clouds,dailyrainin,SoftwareType,DateUTC
2013-05-09 00:01:00,58.8,57.5,29.94,ESE,122,0.0,0.0,95,0.01,,OVC OVC///CB,0.01,WUHU216DAVISVP2,2013-05-09 04:01:00,
2013-05-09 00:06:00,58.7,57.4,29.94,ESE,123,0.0,0.0,95,0.01,,OVC OVC///CB,0.00,WUHU216DAVISVP2,2013-05-09 04:06:00,
2013-05-09 00:11:00,58.7,57.4,29.94,ESE,122,0.0,0.0,95,0.01,,OVC OVC///CB,0.00,WUHU216DAVISVP2,2013-05-09 04:11:00,
2013-05-09 00:16:00,58.7,57.6,29.93,ESE,122,0.0,0.0,96,0.01,,OVC OVC///CB,0.00,WUHU216DAVISVP2,2013-05-09 04:16:00,
2013-05-09 00:21:00,58.6,57.5,29.93,ESE,122,0.0,0.0,96,0.01,,OVC OVC///CB,0.00,WUHU216DAVISVP2,2013-05-09 04:21:00,
2013-05-09 00:26:00,58.6,57.5,29.93,ESE,123,0.0,0.0,96,0.01,,OVC OVC///CB,0.00,WUHU216DAVISVP2,2013-05-09 04:26:00,
2013-05-09 00:31:00,58.5,57.4,29.93,ESE,122,0.0,0.0,96,0.01,,OVC OVC///CB,0.00,WUHU216DAVISVP2,2013-05-09 04:31:00,
2013-05-09 00:36:00,58.4,57.6,29.93,ESE,123,0.0,0.0,97,0.02,,OVC OVC///CB,0.01,WUHU216DAVISVP2,2013-05-09 04:36:00,
2013-05-09 00:41:00,58.3,57.5,29.93,ESE,122,0.0,0.0,97,0.02,,OVC OVC///CB,0.01,WUHU216DAVISVP2,2013-05-09 04:41:00,
2013-05-09 00:46:00,58.2,57.4,29.93,SSW,208,0.0,0.0,97,0.01,,OVC OVC///CB,0.01,WUHU216DAVISVP2,2013-05-09 04:46:00,
2013-05-09 00:51:00,58.1,57.3,29.93,SSW,208,0.0,0.0,97,0.01,,OVC OVC///CB,0.01,WUHU216DAVISVP2,2013-05-09 04:51:00,
2013-05-09 00:56:00,58.1,57.3,29.93,SSW,208,0.0,1.0,97,0.01,,OVC OVC///CB,0.01,WUHU216DAVISVP2,2013-05-09 04:56:00,
2013-05-09 01:01:00,58.2,57.4,29.92,SSW,208,0.0,1.0,97,0.01,,OVC OVC///CB,0.01,WUHU216DAVISVP2,2013-05-09 05:01:00,
2013-05-09 01:06:00,58.2,57.4,29.92,SSW,208,0.0,1.0,97,0.01,,OVC OVC///CB,0.01,WUHU216DAVISVP2,2013-05-09 05:06:00,
2013-05-09 01:11:00,58.2,57.4,29.92,SSW,208,0.0,1.0,97,0.01,,OVC OVC///CB,0.01,WUHU216DAVISVP2,2013-05-09 05:11:00,
2013-05-09 01:16:00,58.3,57.8,29.92,SSW,208,0.0,1.0,98,0.01,,OVC OVC///CB,0.01,WUHU216DAVISVP2,2013-05-09 05:16:00,
2013-05-09 01:21:00,58.3,57.8,29.92,SSW,208,0.0,0.0,98,0.01,,OVC OVC///CB,0.01,WUHU216DAVISVP2,2013-05-09 05:21:00,
2013-05-09 01:26:00,58.3,57.8,29.92,SSW,208,0.0,0.0,98,0.01,,OVC OVC///CB,0.01,WUHU216DAVISVP2,2013-05-09 05:26:00,
2013-05-09 01:31:00,58.2,57.7,29.92,SSW,208,0.0,0.0,98,0.01,,OVC OVC///CB,0.01,WUHU216DAVISVP2,2013-05-09 05:31:00,
2013-05-09 01:36:00,58.2,57.7,29.92,SSW,208,0.0,0.0,98,0.00,,OVC OVC///CB,0.01,WUHU216DAVISVP2,2013-05-09 05:36:00,
2013-05-09 01:41:00,58.1,57.6,29.92,SSW,208,0.0,0.0,98,0.00,,OVC OVC///CB,0.01,WUHU216DAVISVP2,2013-05-09 05:41:00,
2013-05-09 01:46:00,58.1,57.6,29.92,SSW,208,0.0,0.0,98,0.00,,OVC OVC///CB,0.01,WUHU216DAVISVP2,2013-05-09 05:46:00,
2013-05-09 01:51:00,58.0,57.5,29.92,SSW,208,0.0,0.0,98,0.00,,OVC OVC///CB,0.01,WUHU216DAVISVP2,2013-05-09 05:51:00,
2013-05-09 01:56:00,58.0,57.5,29.92,SSW,208,0.0,0.0,98,0.00,,OVC OVC///CB,0.01,WUHU216DAVISVP2,2013-05-09 05:56:00,
2013-05-09 02:01:00,58.0,57.5,29.92,SSW,208,0.0,0.0,98,0.00,,OVC OVC///CB,0.01,WUHU216DAVISVP2,2013-05-09 06:01:00,
2013-05-09 02:06:00,58.0,57.5,29.92,SSW,208,0.0,0.0,98,0.00,,OVC OVC///CB,0.01,WUHU216DAVISVP2,2013-05-09 06:06:00,
2013-05-09 02:11:00,58.0,57.5,29.92,SSW,208,0.0,0.0,98,0.00,,OVC OVC///CB,0.01,WUHU216DAVISVP2,2013-05-09 06:11:00,
2013-05-09 02:16:00,57.9,57.4,29.92,SSW,208,0.0,0.0,98,0.00,,OVC OVC///CB,0.01,WUHU216DAVISVP2,2013-05-09 06:16:00,
2013-05-09 02:21:00,57.9,57.4,29.91,SSW,208,0.0,0.0,98,0.00,,OVC OVC///CB,0.01,WUHU216DAVISVP2,2013-05-09 06:21:00,
2013-05-09 02:26:00,58.0,57.8,29.91,SSW,208,0.0,0.0,99,0.00,,OVC OVC///CB,0.01,WUHU216DAVISVP2,2013-05-09 06:26:00,
2013-05-09 02:31:00,58.0,57.8,29.91,SSW,208,0.0,0.0,99,0.00,,OVC OVC///CB,0.01,WUHU216DAVISVP2,2013-05-09 06:31:00,
2013-05-09 02:36:00,57.9,57.7,29.91,SSW,208,0.0,0.0,99,0.00,,OVC OVC///CB,0.01,WUHU216DAVISVP2,2013-05-09 06:36:00,
2013-05-09 02:41:00,58.0,57.8,29.91,SSW,208,0.0,0.0,99,0.00,,OVC OVC///CB,0.01,WUHU216DAVISVP2,2013-05-09 06:41:00,
2013-05-09 02:46:00,58.0,57.8,29.91,SSW,208,0.0,0.0,99,0.00,,OVC OVC///CB,0.01,WUHU216DAVISVP2,2013-05-09 06:46:00,
2013-05-09 02:51:00,57.9,57.7,29.91,SSW,208,0.0,0.0,99,0.00,,OVC OVC///CB,0.01,WUHU216DAVISVP2,2013-05-09 06:51:00,
2013-05-09 02:56:00,57.9,57.7,29.91,SSW,208,0.0,0.0,99,0.00,,OVC OVC///CB,0.01,WUHU216DAVISVP2,2013-05-09 06:56:00,
2013-05-09 03:01:00,57.8,57.6,29.91,SSW,208,0.0,0.0,99,0.00,,OVC OVC///CB,0.01,WUHU216DAVISVP2,2013-05-09 07:01:00,
2013-05-09 03:06:00,57.9,57.7,29.91,SSW,208,0.0,0.0,99,0.00,,OVC OVC///CB,0.01,WUHU216DAVISVP2,2013-05-09 07:06:00,
2013-05-09 03:11:00,57.8,57.6,29.91,SSW,208,0.0,1.0,99,0.00,,OVC OVC///CB,0.01,WUHU216DAVISVP2,2013-05-09 07:11:00,
2013-05-09 03:16:00,57.8,57.6,29.91,SSW,208,0.0,1.0,99,0.00,,OVC OVC///CB,0.01,WUHU216DAVISVP2,2013-05-09 07:16:00,
2013-05-09 03:21:00,57.8,57.6,29.91,SSW,208,0.0,1.0,99,0.00,,OVC OVC///CB,0.01,WUHU216DAVISVP2,2013-05-09 07:21:00,
2013-05-09 03:26:00,57.7,57.5,29.91,SSW,208,0.0,1.0,99,0.00,,OVC OVC///CB,0.01,WUHU216DAVISVP2,2013-05-09 07:26:00,
2013-05-09 03:31:00,57.6,57.4,29.91,SSW,208,0.0,0.0,99,0.00,,OVC OVC///CB,0.01,WUHU216DAVISVP2,2013-05-09 07:31:00,
2013-05-09 03:36:00,57.6,57.4,29.91,SSW,212,0.0,1.0,99,0.00,,OVC OVC///CB,0.01,WUHU216DAVISVP2,2013-05-09 07:36:00,
2013-05-09 03:41:00,57.5,57.3,29.91,SW,224,0.0,1.0,99,0.00,,OVC OVC///CB,0.01,WUHU216DAVISVP2,2013-05-09 07:41:00,
2013-05-09 03:46:00,57.5,57.3,29.91,SW,224,0.0,1.0,99,0.00,,OVC OVC///CB,0.01,WUHU216DAVISVP2,2013-05-09 07:46:00,
2013-05-09 03:51:00,57.5,57.3,29.91,SW,224,0.0,1.0,99,0.00,,OVC OVC///CB,0.01,WUHU216DAVISVP2,2013-05-09 07:51:00,
2013-05-09 03:56:00,57.4,57.2,29.91,SW,224,0.0,1.0,99,0.00,,OVC OVC///CB,0.01,WUHU216DAVISVP2,2013-05-09 07:56:00,
2013-05-09 04:01:00,57.4,57.2,29.91,SW,224,0.0,0.0,99,0.00,,OVC OVC///CB,0.01,WUHU216DAVISVP2,2013-05-09 08:01:00,
2013-05-09 04:06:00,57.3,57.1,29.91,SW,224,0.0,0.0,99,0.00,,OVC OVC///CB,0.01,WUHU216DAVISVP2,2013-05-09 08:06:00,
2013-05-09 04:11:00,57.2,57.0,29.91,SW,224,0.0,0.0,99,0.00,,OVC OVC///CB,0.01,WUHU216DAVISVP2,2013-05-09 08:11:00,
2013-05-09 04:16:00,57.2,57.0,29.91,SW,224,0.0,0.0,99,0.00,,OVC OVC///CB,0.01,WUHU216DAVISVP2,2013-05-09 08:16:00,
2013-05-09 04:21:00,57.1,56.9,29.91,SW,224,0.0,0.0,99,0.00,,OVC OVC///CB,0.01,WUHU216DAVISVP2,2013-05-09 08:21:00,
2013-05-09 04:26:00,57.1,56.9,29.91,SW,224,0.0,1.0,99,0.00,,OVC OVC///CB,0.01,WUHU216DAVISVP2,2013-05-09 08:26:00,
2013-05-09 04:31:00,57.0,56.8,29.91,SW,225,0.0,1.0,99,0.00,,OVC OVC///CB,0.01,WUHU216DAVISVP2,2013-05-09 08:31:00,
2013-05-09 04:36:00,56.9,56.7,29.91,SW,225,0.0,1.0,99,0.00,,OVC OVC///CB,0.01,WUHU216DAVISVP2,2013-05-09 08:36:00,
2013-05-09 04:41:00,56.9,56.7,29.91,SW,226,0.0,1.0,99,0.00,,OVC OVC///CB,0.01,WUHU216DAVISVP2,2013-05-09 08:41:00,
2013-05-09 04:46:00,56.8,56.6,29.91,SW,225,0.0,1.0,99,0.00,,OVC OVC///CB,0.01,WUHU216DAVISVP2,2013-05-09 08:46:00,
2013-05-09 04:51:00,56.7,56.5,29.91,SW,225,0.0,1.0,99,0.00,,OVC OVC///CB,0.01,WUHU216DAVISVP2,2013-05-09 08:51:00,
2013-05-09 04:56:00,56.5,56.3,29.91,SW,225,0.0,1.0,99,0.00,,OVC OVC///CB,0.01,WUHU216DAVISVP2,2013-05-09 08:56:00,
2013-05-09 05:01:00,56.3,56.1,29.91,SW,225,0.0,0.0,99,0.00,,OVC OVC///CB,0.01,WUHU216DAVISVP2,2013-05-09 09:01:00,
2013-05-09 05:06:00,56.1,55.9,29.91,SW,225,0.0,1.0,99,0.00,,OVC OVC///CB,0.01,WUHU216DAVISVP2,2013-05-09 09:06:00,
2013-05-09 05:11:00,55.9,55.7,29.91,SW,225,0.0,1.0,99,0.00,,OVC OVC///CB,0.01,WUHU216DAVISVP2,2013-05-09 09:11:00,
2013-05-09 05:16:00,55.7,55.5,29.91,SW,225,0.0,1.0,99,0.00,,OVC OVC///CB,0.01,WUHU216DAVISVP2,2013-05-09 09:16:00,
2013-05-09 05:21:00,55.5,55.3,29.91,SW,226,0.0,1.0,99,0.00,,OVC OVC///CB,0.01,WUHU216DAVISVP2,2013-05-09 09:21:00,
2013-05-09 05:26:00,55.4,55.2,29.91,SW,225,0.0,1.0,99,0.00,,OVC OVC///CB,0.01,WUHU216DAVISVP2,2013-05-09 09:26:00,
2013-05-09 05:31:00,55.3,55.1,29.91,SW,225,0.0,1.0,99,0.00,,OVC OVC///CB,0.01,WUHU216DAVISVP2,2013-05-09 09:31:00,
2013-05-09 05:36:00,55.1,54.9,29.91,SW,225,0.0,1.0,99,0.00,,OVC OVC///CB,0.01,WUHU216DAVISVP2,2013-05-09 09:36:00,
2013-05-09 05:41:00,54.9,54.7,29.92,SW,225,0.0,0.0,99,0.00,,OVC OVC///CB,0.01,WUHU216DAVISVP2,2013-05-09 09:41:00,
2013-05-09 05:46:00,54.8,54.6,29.92,SW,225,0.0,1.0,99,0.00,,OVC OVC///CB,0.01,WUHU216DAVISVP2,2013-05-09 09:46:00,
2013-05-09 05:51:00,54.7,54.5,29.92,SW,226,0.0,1.0,99,0.00,,OVC OVC///CB,0.01,WUHU216DAVISVP2,2013-05-09 09:51:00,
2013-05-09 05:56:00,54.7,54.5,29.92,SW,225,0.0,1.0,99,0.00,,OVC OVC///CB,0.01,WUHU216DAVISVP2,2013-05-09 09:56:00,
2013-05-09 06:01:00,54.7,54.5,29.92,SW,225,0.0,1.0,99,0.00,,OVC OVC///CB,0.01,WUHU216DAVISVP2,2013-05-09 10:01:00,
2013-05-09 06:06:00,54.8,54.6,29.92,SW,225,0.0,0.0,99,0.00,,OVC OVC///CB,0.01,WUHU216DAVISVP2,2013-05-09 10:06:00,
2013-05-09 06:11:00,54.9,54.7,29.92,SW,225,0.0,0.0,99,0.00,,OVC OVC///CB,0.01,WUHU216DAVISVP2,2013-05-09 10:11:00,
2013-05-09 06:16:00,54.9,54.7,29.93,SW,225,0.0,0.0,99,0.00,,OVC OVC///CB,0.01,WUHU216DAVISVP2,2013-05-09 10:16:00,
2013-05-09 06:21:00,54.9,54.7,29.92,SW,225,0.0,0.0,99,0.00,,OVC OVC///CB,0.01,WUHU216DAVISVP2,2013-05-09 10:21:00,
2013-05-09 06:26:00,54.9,54.7,29.92,SW,225,0.0,0.0,99,0.00,,OVC OVC///CB,0.01,WUHU216DAVISVP2,2013-05-09 10:26:00,
2013-05-09 06:31:00,54.8,54.6,29.93,SW,226,0.0,0.0,99,0.00,,OVC OVC///CB,0.01,WUHU216DAVISVP2,2013-05-09 10:31:00,
2013-05-09 06:36:00,54.6,54.4,29.93,SW,225,0.0,0.0,99,0.00,,OVC OVC///CB,0.01,WUHU216DAVISVP2,2013-05-09 10:36:00,
2013-05-09 06:41:00,54.5,54.3,29.93,SW,225,0.0,0.0,99,0.00,,OVC OVC///CB,0.01,WUHU216DAVISVP2,2013-05-09 10:41:00,
2013-05-09 06:46:00,54.5,54.3,29.93,SW,225,0.0,0.0,99,0.00,,OVC OVC///CB,0.01,WUHU216DAVISVP2,2013-05-09 10:46:00,
2013-05-09 06:51:00,54.4,54.2,29.94,SW,225,0.0,0.0,99,0.00,,OVC OVC///CB,0.01,WUHU216DAVISVP2,2013-05-09 10:51:00,
2013-05-09 06:56:00,54.4,54.4,29.94,SW,225,0.0,0.0,100,0.00,,OVC OVC///CB,0.01,WUHU216DAVISVP2,2013-05-09 10:56:00,
2013-05-09 07:01:00,54.4,54.4,29.94,SW,226,0.0,0.0,100,0.00,,OVC OVC///CB,0.01,WUHU216DAVISVP2,2013-05-09 11:01:00,
2013-05-09 07:06:00,54.5,54.5,29.95,SW,225,0.0,0.0,100,0.00,,OVC OVC///CB,0.01,WUHU216DAVISVP2,2013-05-09 11:06:00,
2013-05-09 07:11:00,54.6,54.6,29.95,SW,225,0.0,0.0,100,0.00,,OVC OVC///CB,0.01,WUHU216DAVISVP2,2013-05-09 11:11:00,
2013-05-09 07:16:00,54.8,54.8,29.96,SW,225,0.0,0.0,100,0.00,,OVC OVC///CB,0.01,WUHU216DAVISVP2,2013-05-09 11:16:00,
2013-05-09 07:21:00,55.1,55.1,29.96,SW,225,0.0,0.0,100,0.00,,OVC OVC///CB,0.01,WUHU216DAVISVP2,2013-05-09 11:21:00,
2013-05-09 07:26:00,55.3,55.3,29.96,SW,225,0.0,0.0,100,0.00,,OVC OVC///CB,0.01,WUHU216DAVISVP2,2013-05-09 11:26:00,
2013-05-09 07:31:00,55.6,55.6,29.96,SW,225,0.0,0.0,100,0.00,,OVC OVC///CB,0.01,WUHU216DAVISVP2,2013-05-09 11:31:00,
2013-05-09 07:36:00,55.8,55.8,29.96,SW,225,0.0,0.0,100,0.00,,OVC OVC///CB,0.01,WUHU216DAVISVP2,2013-05-09 11:36:00,
2013-05-09 07:41:00,56.1,56.1,29.96,SW,225,0.0,1.0,100,0.00,,OVC OVC///CB,0.01,WUHU216DAVISVP2,2013-05-09 11:41:00,
2013-05-09 07:46:00,56.5,56.3,29.96,SW,226,0.0,1.0,99,0.00,,OVC OVC///CB,0.01,WUHU216DAVISVP2,2013-05-09 11:46:00,
2013-05-09 07:51:00,57.2,57.0,29.96,SW,225,0.0,1.0,99,0.00,,OVC OVC///CB,0.01,WUHU216DAVISVP2,2013-05-09 11:51:00,
2013-05-09 07:56:00,58.1,57.9,29.97,SW,225,0.0,1.0,99,0.00,,OVC OVC///CB,0.01,WUHU216DAVISVP2,2013-05-09 11:56:00,
2013-05-09 08:01:00,58.8,58.0,29.97,SW,226,0.0,0.0,97,0.00,,OVC OVC///CB,0.01,WUHU216DAVISVP2,2013-05-09 12:01:00,
2013-05-09 08:06:00,59.0,57.4,29.97,West,267,0.0,1.0,94,0.00,,OVC OVC///CB,0.01,WUHU216DAVISVP2,2013-05-09 12:06:00,
2013-05-09 08:11:00,59.0,57.1,29.97,West,262,0.0,1.0,93,0.00,,OVC OVC///CB,0.01,WUHU216DAVISVP2,2013-05-09 12:11:00,
2013-05-09 08:16:00,59.2,57.0,29.97,WNW,283,0.0,2.0,92,0.00,,OVC OVC///CB,0.01,WUHU216DAVISVP2,2013-05-09 12:16:00,
2013-05-09 08:21:00,59.3,57.1,29.97,WSW,257,0.0,2.0,92,0.00,,OVC OVC///CB,0.01,WUHU216DAVISVP2,2013-05-09 12:21:00,
2013-05-09 08:26:00,59.3,56.8,29.97,West,272,0.0,2.0,91,0.00,,OVC OVC///CB,0.01,WUHU216DAVISVP2,2013-05-09 12:26:00,
2013-05-09 08:31:00,59.4,56.6,29.98,WNW,283,0.0,2.0,90,0.00,,OVC OVC///CB,0.01,WUHU216DAVISVP2,2013-05-09 12:31:00,
2013-05-09 08:36:00,59.4,56.6,29.98,WNW,289,0.0,2.0,90,0.00,,OVC OVC///CB,0.01,WUHU216DAVISVP2,2013-05-09 12:36:00,
2013-05-09 08:41:00,59.5,56.7,29.98,WNW,289,0.0,2.0,90,0.00,,OVC OVC///CB,0.01,WUHU216DAVISVP2,2013-05-09 12:41:00,
2013-05-09 08:46:00,59.7,57.2,29.98,WNW,289,0.0,2.0,91,0.00,,OVC OVC///CB,0.01,WUHU216DAVISVP2,2013-05-09 12:46:00,
2013-05-09 08:51:00,59.7,56.9,29.98,West,274,0.0,1.0,90,0.00,,OVC OVC///CB,0.01,WUHU216DAVISVP2,2013-05-09 12:51:00,
2013-05-09 08:56:00,59.7,56.9,29.97,West,280,0.0,2.0,90,0.00,,OVC OVC///CB,0.01,WUHU216DAVISVP2,2013-05-09 12:56:00,
2013-05-09 09:01:00,59.9,57.1,29.97,WNW,285,0.0,2.0,90,0.00,,OVC OVC///CB,0.01,WUHU216DAVISVP2,2013-05-09 13:01:00,
2013-05-09 09:06:00,59.9,56.7,29.97,West,259,2.0,4.0,89,0.00,,OVC OVC///CB,0.01,WUHU216DAVISVP2,2013-05-09 13:06:00,
2013-05-09 09:11:00,59.8,56.6,29.97,West,269,0.0,4.0,89,0.00,,OVC OVC///CB,0.01,WUHU216DAVISVP2,2013-05-09 13:11:00,
2013-05-09 09:16:00,60.0,57.2,29.97,West,269,0.0,4.0,90,0.00,,OVC OVC///CB,0.01,WUHU216DAVISVP2,2013-05-09 13:16:00,
2013-05-09 09:21:00,60.0,56.5,29.97,WSW,252,0.0,4.0,88,0.00,,OVC OVC///CB,0.01,WUHU216DAVISVP2,2013-05-09 13:21:00,
2013-05-09 09:26:00,59.9,56.4,29.97,WNW,283,0.0,3.0,88,0.00,,OVC OVC///CB,0.01,WUHU216DAVISVP2,2013-05-09 13:26:00,
2013-05-09 09:31:00,59.9,56.7,29.97,WSW,257,0.0,3.0,89,0.00,,OVC OVC///CB,0.01,WUHU216DAVISVP2,2013-05-09 13:31:00,
2013-05-09 09:36:00,60.0,56.8,29.97,WSW,242,0.0,3.0,89,0.00,,OVC OVC///CB,0.01,WUHU216DAVISVP2,2013-05-09 13:36:00,
2013-05-09 09:41:00,60.2,56.7,29.97,SW,226,0.0,3.0,88,0.00,,OVC OVC///CB,0.01,WUHU216DAVISVP2,2013-05-09 13:41:00,
2013-05-09 09:46:00,60.4,56.9,29.97,West,260,0.0,2.0,88,0.00,,OVC OVC///CB,0.01,WUHU216DAVISVP2,2013-05-09 13:46:00,
2013-05-09 09:51:00,60.7,57.2,29.97,WSW,254,0.0,2.0,88,0.00,,OVC OVC///CB,0.01,WUHU216DAVISVP2,2013-05-09 13:51:00,
2013-05-09 09:56:00,60.9,56.8,29.97,West,266,0.0,2.0,86,0.00,,OVC OVC///CB,0.01,WUHU216DAVISVP2,2013-05-09 13:56:00,
2013-05-09 10:01:00,61.2,57.1,29.97,WSW,237,1.0,2.0,86,0.00,,OVC OVC///CB,0.01,WUHU216DAVISVP2,2013-05-09 14:01:00,
2013-05-09 10:06:00,61.5,57.1,29.97,WSW,239,0.0,2.0,85,0.00,,OVC OVC///CB,0.01,WUHU216DAVISVP2,2013-05-09 14:06:00,
2013-05-09 10:11:00,61.6,56.5,29.96,WSW,239,0.0,2.0,83,0.00,,OVC OVC///CB,0.01,WUHU216DAVISVP2,2013-05-09 14:11:00,
2013-05-09 10:16:00,61.8,56.7,29.97,SSW,203,0.0,1.0,83,0.00,,OVC OVC///CB,0.01,WUHU216DAVISVP2,2013-05-09 14:16:00,
2013-05-09 10:21:00,62.1,56.7,29.97,WSW,250,0.0,1.0,82,0.00,,OVC OVC///CB,0.01,WUHU216DAVISVP2,2013-05-09 14:21:00,
2013-05-09 10:26:00,62.6,57.2,29.97,SSW,212,0.0,1.0,82,0.00,,OVC OVC///CB,0.01,WUHU216DAVISVP2,2013-05-09 14:26:00,
2013-05-09 10:31:00,63.4,57.3,29.97,WSW,253,1.0,2.0,80,0.00,,OVC OVC///CB,0.01,WUHU216DAVISVP2,2013-05-09 14:31:00,
2013-05-09 10:36:00,64.5,58.4,29.97,ENE,57,2.0,2.0,80,0.00,,OVC OVC///CB,0.01,WUHU216DAVISVP2,2013-05-09 14:36:00,
2013-05-09 10:41:00,65.1,57.6,29.97,NNW,333,2.0,5.0,76,0.00,,OVC OVC///CB,0.01,WUHU216DAVISVP2,2013-05-09 14:41:00,
2013-05-09 10:46:00,65.4,56.8,29.97,ENE,71,1.0,5.0,73,0.00,,OVC OVC///CB,0.01,WUHU216DAVISVP2,2013-05-09 14:46:00,
2013-05-09 10:51:00,66.0,58.1,29.97,NW,314,2.0,5.0,75,0.00,,OVC OVC///CB,0.01,WUHU216DAVISVP2,2013-05-09 14:51:00,
2013-05-09 10:56:00,66.3,57.3,29.97,ENE,64,0.0,7.0,72,0.00,,OVC OVC///CB,0.01,WUHU216DAVISVP2,2013-05-09 14:56:00,
2013-05-09 11:01:00,67.2,57.8,29.97,NE,36,2.0,7.0,71,0.00,,OVC OVC///CB,0.01,WUHU216DAVISVP2,2013-05-09 15:01:00,
2013-05-09 11:06:00,67.7,58.3,29.97,WNW,297,0.0,7.0,71,0.00,,OVC OVC///CB,0.01,WUHU216DAVISVP2,2013-05-09 15:06:00,
2013-05-09 11:11:00,68.5,57.5,29.97,WSW,250,1.0,7.0,67,0.00,,OVC OVC///CB,0.01,WUHU216DAVISVP2,2013-05-09 15:11:00,
2013-05-09 11:16:00,68.7,58.1,29.97,ENE,61,1.0,7.0,68,0.00,,OVC OVC///CB,0.01,WUHU216DAVISVP2,2013-05-09 15:16:00,
2013-05-09 11:21:00,69.0,58.3,29.97,WNW,287,3.0,7.0,68,0.00,,OVC OVC///CB,0.01,WUHU216DAVISVP2,2013-05-09 15:21:00,
2013-05-09 11:26:00,69.3,58.2,29.97,WNW,284,0.0,6.0,67,0.00,,OVC OVC///CB,0.01,WUHU216DAVISVP2,2013-05-09 15:26:00,
2013-05-09 11:31:00,69.7,58.2,29.97,NNW,335,3.0,6.0,66,0.00,,OVC OVC///CB,0.01,WUHU216DAVISVP2,2013-05-09 15:31:00,
2013-05-09 11:36:00,70.2,58.2,29.97,ESE,115,2.0,8.0,65,0.00,,OVC OVC///CB,0.01,WUHU216DAVISVP2,2013-05-09 15:36:00,
2013-05-09 11:41:00,70.4,57.6,29.97,ENE,61,3.0,9.0,63,0.00,,OVC OVC///CB,0.01,WUHU216DAVISVP2,2013-05-09 15:41:00,
2013-05-09 11:46:00,70.3,57.0,29.97,NW,316,2.0,10.0,62,0.00,,OVC OVC///CB,0.01,WUHU216DAVISVP2,2013-05-09 15:46:00,
2013-05-09 11:51:00,70.6,57.3,29.97,NNW,348,0.0,10.0,62,0.00,,OVC OVC///CB,0.01,WUHU216DAVISVP2,2013-05-09 15:51:00,
2013-05-09 11:56:00,71.3,57.1,29.97,North,1,6.0,9.0,60,0.00,,OVC OVC///CB,0.01,WUHU216DAVISVP2,2013-05-09 15:56:00,
2013-05-09 12:01:00,71.4,57.6,29.97,SW,233,1.0,9.0,61,0.00,,OVC OVC///CB,0.01,WUHU216DAVISVP2,2013-05-09 16:01:00,
2013-05-09 12:06:00,71.5,57.7,29.97,WNW,302,3.0,8.0,61,0.00,,OVC OVC///CB,0.01,WUHU216DAVISVP2,2013-05-09 16:06:00,
2013-05-09 12:11:00,71.7,57.4,29.97,West,278,1.0,8.0,60,0.00,,OVC OVC///CB,0.01,WUHU216DAVISVP2,2013-05-09 16:11:00,
2013-05-09 12:16:00,72.2,57.0,29.97,SW,233,4.0,8.0,58,0.00,,OVC OVC///CB,0.01,WUHU216DAVISVP2,2013-05-09 16:16:00,
2013-05-09 12:22:00,72.3,56.6,29.97,NNW,340,0.0,8.0,57,0.00,,OVC OVC///CB,0.01,WUHU216DAVISVP2,2013-05-09 16:22:00,
2013-05-09 12:27:00,72.7,57.9,29.97,NE,38,4.0,7.0,59,0.00,,OVC OVC///CB,0.01,WUHU216DAVISVP2,2013-05-09 16:27:00,
2013-05-09 12:32:00,73.2,57.9,29.97,NNW,332,3.0,5.0,58,0.00,,OVC OVC///CB,0.01,WUHU216DAVISVP2,2013-05-09 16:32:00,
2013-05-09 12:37:00,73.7,56.9,29.97,NW,321,1.0,5.0,55,0.00,,OVC OVC///CB,0.01,WUHU216DAVISVP2,2013-05-09 16:37:00,
2013-05-09 12:42:00,73.5,55.7,29.97,WNW,293,4.0,8.0,53,0.00,,OVC OVC///CB,0.01,WUHU216DAVISVP2,2013-05-09 16:42:00,
2013-05-09 12:47:00,73.6,55.2,29.97,NNE,24,3.0,8.0,52,0.00,,OVC OVC///CB,0.01,WUHU216DAVISVP2,2013-05-09 16:47:00,
2013-05-09 12:52:00,74.0,56.6,29.97,WNW,302,3.0,10.0,54,0.00,,OVC OVC///CB,0.01,WUHU216DAVISVP2,2013-05-09 16:52:00,
2013-05-09 12:57:00,74.4,56.0,29.97,WNW,284,0.0,10.0,52,0.00,,OVC OVC///CB,0.01,WUHU216DAVISVP2,2013-05-09 16:57:00,
2013-05-09 13:02:00,75.0,55.4,29.97,WSW,241,5.0,10.0,50,0.00,,OVC OVC///CB,0.01,WUHU216DAVISVP2,2013-05-09 17:02:00,
2013-05-09 13:07:00,75.1,55.5,29.97,NW,309,2.0,10.0,50,0.00,,OVC OVC///CB,0.01,WUHU216DAVISVP2,2013-05-09 17:07:00,
2013-05-09 13:12:00,75.3,55.7,29.97,SW,235,3.0,10.0,50,0.00,,OVC OVC///CB,0.01,WUHU216DAVISVP2,2013-05-09 17:12:00,
2013-05-09 13:17:00,75.1,53.8,29.96,NW,314,2.0,10.0,47,0.00,,OVC OVC///CB,0.01,WUHU216DAVISVP2,2013-05-09 17:17:00,
2013-05-09 13:22:00,75.1,51.9,29.96,WNW,288,4.0,10.0,44,0.00,,OVC OVC///CB,0.01,WUHU216DAVISVP2,2013-05-09 17:22:00,
2013-05-09 13:27:00,75.5,54.7,29.96,WSW,245,3.0,9.0,48,0.00,,OVC OVC///CB,0.01,WUHU216DAVISVP2,2013-05-09 17:27:00,
2013-05-09 13:32:00,75.6,53.0,29.96,North,359,2.0,9.0,45,0.00,,OVC OVC///CB,0.01,WUHU216DAVISVP2,2013-05-09 17:32:00,
2013-05-09 13:37:00,74.9,52.4,29.96,WNW,288,3.0,8.0,45,0.00,,OVC OVC///CB,0.01,WUHU216DAVISVP2,2013-05-09 17:37:00,
2013-05-09 13:42:00,75.6,51.7,29.96,ENE,65,3.0,8.0,43,0.00,,OVC OVC///CB,0.01,WUHU216DAVISVP2,2013-05-09 17:42:00,
2013-05-09 13:47:00,75.5,49.7,29.97,WNW,284,5.0,12.0,40,0.00,,OVC OVC///CB,0.01,WUHU216DAVISVP2,2013-05-09 17:47:00,
2013-05-09 13:52:00,75.3,50.8,29.96,WNW,290,4.0,12.0,42,0.00,,OVC OVC///CB,0.01,WUHU216DAVISVP2,2013-05-09 17:52:00,
2013-05-09 13:57:00,75.9,49.3,29.96,WNW,295,1.0,12.0,39,0.00,,OVC OVC///CB,0.01,WUHU216DAVISVP2,2013-05-09 17:57:00,
2013-05-09 14:02:00,76.2,51.0,29.96,NW,314,1.0,12.0,41,0.00,,OVC OVC///CB,0.01,WUHU216DAVISVP2,2013-05-09 18:02:00,
2013-05-09 14:07:00,76.2,51.0,29.96,NNE,33,3.0,10.0,41,0.00,,OVC OVC///CB,0.01,WUHU216DAVISVP2,2013-05-09 18:07:00,
2013-05-09 14:12:00,76.4,49.1,29.96,WNW,290,3.0,12.0,38,0.00,,OVC OVC///CB,0.01,WUHU216DAVISVP2,2013-05-09 18:12:00,
2013-05-09 14:17:00,76.6,47.8,29.96,NNW,343,5.0,12.0,36,0.00,,OVC OVC///CB,0.01,WUHU216DAVISVP2,2013-05-09 18:17:00,
2013-05-09 14:22:00,76.6,48.5,29.96,NNE,23,6.0,12.0,37,0.00,,OVC OVC///CB,0.01,WUHU216DAVISVP2,2013-05-09 18:22:00,
2013-05-09 14:27:00,76.5,49.9,29.96,WNW,291,4.0,12.0,39,0.00,,OVC OVC///CB,0.01,WUHU216DAVISVP2,2013-05-09 18:27:00,
2013-05-09 14:32:00,76.6,50.7,29.96,SW,231,3.0,10.0,40,0.00,,OVC OVC///CB,0.01,WUHU216DAVISVP2,2013-05-09 18:32:00,
2013-05-09 14:37:00,77.0,51.0,29.95,ENE,68,9.0,9.0,40,0.00,,OVC OVC///CB,0.01,WUHU216DAVISVP2,2013-05-09 18:37:00,
2013-05-09 14:42:00,77.4,51.4,29.95,WNW,300,4.0,13.0,40,0.00,,OVC OVC///CB,0.01,WUHU216DAVISVP2,2013-05-09 18:42:00,
2013-05-09 14:47:00,76.8,50.8,29.95,NNE,27,13.0,13.0,40,0.00,,OVC OVC///CB,0.01,WUHU216DAVISVP2,2013-05-09 18:47:00,
2013-05-09 14:52:00,76.1,50.9,29.95,North,350,6.0,14.0,41,0.00,,OVC OVC///CB,0.01,WUHU216DAVISVP2,2013-05-09 18:52:00,
2013-05-09 14:57:00,76.6,52.7,29.95,NE,51,1.0,13.0,43,0.00,,OVC OVC///CB,0.01,WUHU216DAVISVP2,2013-05-09 18:57:00,
2013-05-09 15:02:00,76.6,50.7,29.95,NNE,26,6.0,13.0,40,0.00,,OVC OVC///CB,0.01,WUHU216DAVISVP2,2013-05-09 19:02:00,
2013-05-09 15:07:00,76.6,52.0,29.95,NNE,15,6.0,8.0,42,0.00,,OVC OVC///CB,0.01,WUHU216DAVISVP2,2013-05-09 19:07:00,
2013-05-09 15:12:00,77.0,51.7,29.95,NNW,330,6.0,9.0,41,0.00,,OVC OVC///CB,0.01,WUHU216DAVISVP2,2013-05-09 19:12:00,
2013-05-09 15:17:00,77.1,51.8,29.95,NW,323,3.0,9.0,41,0.00,,OVC OVC///CB,0.01,WUHU216DAVISVP2,2013-05-09 19:17:00,
2013-05-09 15:22:00,77.4,52.7,29.94,West,276,3.0,9.0,42,0.00,,OVC OVC///CB,0.01,WUHU216DAVISVP2,2013-05-09 19:22:00,
2013-05-09 15:27:00,77.7,51.6,29.94,NE,44,5.0,9.0,40,0.00,,OVC OVC///CB,0.01,WUHU216DAVISVP2,2013-05-09 19:27:00,
2013-05-09 15:32:00,77.7,51.0,29.94,WNW,301,3.0,8.0,39,0.00,,OVC OVC///CB,0.01,WUHU216DAVISVP2,2013-05-09 19:32:00,
2013-05-09 15:37:00,77.8,50.3,29.94,WNW,300,6.0,8.0,38,0.00,,OVC OVC///CB,0.01,WUHU216DAVISVP2,2013-05-09 19:37:00,
2013-05-09 15:42:00,78.0,49.8,29.94,WSW,251,4.0,10.0,37,0.00,,OVC OVC///CB,0.01,WUHU216DAVISVP2,2013-05-09 19:42:00,
2013-05-09 15:47:00,78.1,49.9,29.94,WSW,256,6.0,10.0,37,0.00,,OVC OVC///CB,0.01,WUHU216DAVISVP2,2013-05-09 19:47:00,
2013-05-09 15:52:00,78.3,50.1,29.94,NNW,335,3.0,10.0,37,0.00,,OVC OVC///CB,0.01,WUHU216DAVISVP2,2013-05-09 19:52:00,
2013-05-09 15:57:00,78.4,50.9,29.94,North,350,4.0,9.0,38,0.00,,OVC OVC///CB,0.01,WUHU216DAVISVP2,2013-05-09 19:57:00,
2013-05-09 16:02:00,78.2,50.7,29.94,North,352,8.0,12.0,38,0.00,,OVC OVC///CB,0.01,WUHU216DAVISVP2,2013-05-09 20:02:00,
2013-05-09 16:07:00,78.0,49.8,29.94,West,277,2.0,12.0,37,0.00,,OVC OVC///CB,0.01,WUHU216DAVISVP2,2013-05-09 20:07:00,
2013-05-09 16:12:00,78.0,49.8,29.94,WNW,301,0.0,12.0,37,0.00,,OVC OVC///CB,0.01,WUHU216DAVISVP2,2013-05-09 20:12:00,
2013-05-09 16:17:00,78.4,50.9,29.94,WSW,250,1.0,12.0,38,0.00,,OVC OVC///CB,0.01,WUHU216DAVISVP2,2013-05-09 20:17:00,
2013-05-09 16:22:00,78.6,51.0,29.94,WNW,286,5.0,9.0,38,0.00,,OVC OVC///CB,0.01,WUHU216DAVISVP2,2013-05-09 20:22:00,
2013-05-09 16:27:00,78.3,50.1,29.93,WNW,290,3.0,7.0,37,0.00,,OVC OVC///CB,0.01,WUHU216DAVISVP2,2013-05-09 20:27:00,
2013-05-09 16:32:00,78.2,49.2,29.94,NW,311,3.0,8.0,36,0.00,,OVC OVC///CB,0.01,WUHU216DAVISVP2,2013-05-09 20:32:00,
2013-05-09 16:37:00,78.2,50.0,29.94,NW,311,2.0,11.0,37,0.00,,OVC OVC///CB,0.01,WUHU216DAVISVP2,2013-05-09 20:37:00,
2013-05-09 16:42:00,78.7,48.9,29.93,WNW,295,3.0,11.0,35,0.00,,OVC OVC///CB,0.01,WUHU216DAVISVP2,2013-05-09 20:42:00,
2013-05-09 16:47:00,78.4,48.6,29.93,NW,315,0.0,11.0,35,0.00,,OVC OVC///CB,0.01,WUHU216DAVISVP2,2013-05-09 20:47:00,
2013-05-09 16:52:00,78.5,49.5,29.93,North,5,3.0,11.0,36,0.00,,OVC OVC///CB,0.01,WUHU216DAVISVP2,2013-05-09 20:52:00,
2013-05-09 16:57:00,78.4,49.4,29.93,NNE,30,3.0,9.0,36,0.00,,OVC OVC///CB,0.01,WUHU216DAVISVP2,2013-05-09 20:57:00,
2013-05-09 17:02:00,77.7,48.8,29.93,NNE,20,5.0,9.0,36,0.00,,OVC OVC///CB,0.01,WUHU216DAVISVP2,2013-05-09 21:02:00,
2013-05-09 17:07:00,77.5,49.3,29.93,NE,37,2.0,9.0,37,0.00,,OVC OVC///CB,0.01,WUHU216DAVISVP2,2013-05-09 21:07:00,
2013-05-09 17:12:00,77.6,48.7,29.93,WNW,286,4.0,8.0,36,0.00,,OVC OVC///CB,0.01,WUHU216DAVISVP2,2013-05-09 21:12:00,
2013-05-09 17:17:00,77.9,51.1,29.93,WSW,246,2.0,7.0,39,0.00,,OVC OVC///CB,0.01,WUHU216DAVISVP2,2013-05-09 21:17:00,
2013-05-09 17:22:00,77.7,48.8,29.92,West,269,0.0,6.0,36,0.00,,OVC OVC///CB,0.01,WUHU216DAVISVP2,2013-05-09 21:22:00,
2013-05-09 17:27:00,77.6,49.4,29.92,WSW,248,0.0,5.0,37,0.00,,OVC OVC///CB,0.01,WUHU216DAVISVP2,2013-05-09 21:27:00,
2013-05-09 17:32:00,77.9,49.7,29.92,West,269,4.0,6.0,37,0.00,,OVC OVC///CB,0.01,WUHU216DAVISVP2,2013-05-09 21:32:00,
2013-05-09 17:37:00,77.9,49.0,29.92,WSW,258,2.0,6.0,36,0.00,,OVC OVC///CB,0.01,WUHU216DAVISVP2,2013-05-09 21:37:00,
2013-05-09 17:42:00,78.4,49.4,29.92,WNW,297,2.0,6.0,36,0.00,,OVC OVC///CB,0.01,WUHU216DAVISVP2,2013-05-09 21:42:00,
2013-05-09 17:47:00,78.2,49.2,29.92,WSW,256,1.0,6.0,36,0.00,,OVC OVC///CB,0.01,WUHU216DAVISVP2,2013-05-09 21:47:00,
2013-05-09 17:52:00,78.1,49.1,29.92,WSW,251,4.0,6.0,36,0.00,,OVC OVC///CB,0.01,WUHU216DAVISVP2,2013-05-09 21:52:00,
2013-05-09 17:57:00,78.3,49.3,29.92,NNE,32,6.0,7.0,36,0.00,,OVC OVC///CB,0.01,WUHU216DAVISVP2,2013-05-09 21:57:00,
2013-05-09 18:02:00,77.8,48.9,29.92,North,8,6.0,8.0,36,0.00,,OVC OVC///CB,0.01,WUHU216DAVISVP2,2013-05-09 22:02:00,
2013-05-09 18:07:00,77.4,48.5,29.92,NE,43,2.0,8.0,36,0.00,,OVC OVC///CB,0.01,WUHU216DAVISVP2,2013-05-09 22:07:00,
2013-05-09 18:12:00,77.3,48.4,29.92,NE,37,0.0,7.0,36,0.00,,OVC OVC///CB,0.01,WUHU216DAVISVP2,2013-05-09 22:12:00,
2013-05-09 18:17:00,77.4,48.5,29.92,WNW,300,2.0,7.0,36,0.00,,OVC OVC///CB,0.01,WUHU216DAVISVP2,2013-05-09 22:17:00,
2013-05-09 18:22:00,77.4,49.3,29.91,ENE,62,1.0,5.0,37,0.00,,OVC OVC///CB,0.01,WUHU216DAVISVP2,2013-05-09 22:22:00,
2013-05-09 18:27:00,77.1,49.0,29.92,ENE,73,2.0,5.0,37,0.00,,OVC OVC///CB,0.01,WUHU216DAVISVP2,2013-05-09 22:27:00,
2013-05-09 18:32:00,76.8,49.4,29.92,NE,49,0.0,5.0,38,0.00,,OVC OVC///CB,0.01,WUHU216DAVISVP2,2013-05-09 22:32:00,
2013-05-09 18:37:00,76.9,48.8,29.92,NNE,18,1.0,5.0,37,0.00,,OVC OVC///CB,0.01,WUHU216DAVISVP2,2013-05-09 22:37:00,
2013-05-09 18:42:00,76.6,47.8,29.92,NNE,27,0.0,5.0,36,0.00,,OVC OVC///CB,0.01,WUHU216DAVISVP2,2013-05-09 22:42:00,
2013-05-09 18:47:00,76.5,48.4,29.92,North,352,2.0,5.0,37,0.00,,OVC OVC///CB,0.01,WUHU216DAVISVP2,2013-05-09 22:47:00,
2013-05-09 18:52:00,76.4,49.8,29.92,North,359,0.0,4.0,39,0.00,,OVC OVC///CB,0.01,WUHU216DAVISVP2,2013-05-09 22:52:00,
2013-05-09 18:57:00,76.6,48.5,29.92,East,95,1.0,4.0,37,0.00,,OVC OVC///CB,0.01,WUHU216DAVISVP2,2013-05-09 22:57:00,
2013-05-09 19:02:00,76.3,49.0,29.92,East,94,0.0,4.0,38,0.00,,OVC OVC///CB,0.01,WUHU216DAVISVP2,2013-05-09 23:02:00,
2013-05-09 19:07:00,76.1,49.5,29.92,East,94,0.0,2.0,39,0.00,,OVC OVC///CB,0.01,WUHU216DAVISVP2,2013-05-09 23:07:00,
2013-05-09 19:12:00,76.0,49.4,29.93,East,95,0.0,2.0,39,0.00,,OVC OVC///CB,0.01,WUHU216DAVISVP2,2013-05-09 23:12:00,
2013-05-09 19:17:00,75.9,50.0,29.93,East,95,0.0,1.0,40,0.00,,OVC OVC///CB,0.01,WUHU216DAVISVP2,2013-05-09 23:17:00,
2013-05-09 19:22:00,75.7,51.2,29.93,East,94,0.0,1.0,42,0.00,,OVC OVC///CB,0.01,WUHU216DAVISVP2,2013-05-09 23:22:00,
2013-05-09 19:27:00,75.3,50.2,29.93,East,94,0.0,1.0,41,0.00,,OVC OVC///CB,0.01,WUHU216DAVISVP2,2013-05-09 23:27:00,
2013-05-09 19:32:00,75.0,51.2,29.94,East,94,0.0,0.0,43,0.00,,OVC OVC///CB,0.01,WUHU216DAVISVP2,2013-05-09 23:32:00,
2013-05-09 19:37:00,74.5,48.8,29.94,NNE,20,3.0,6.0,40,0.00,,OVC OVC///CB,0.01,WUHU216DAVISVP2,2013-05-09 23:37:00,
2013-05-09 19:42:00,74.0,49.0,29.94,ESE,106,0.0,6.0,41,0.00,,OVC OVC///CB,0.01,WUHU216DAVISVP2,2013-05-09 23:42:00,
2013-05-09 19:47:00,73.8,48.1,29.94,ESE,106,0.0,5.0,40,0.00,,OVC OVC///CB,0.01,WUHU216DAVISVP2,2013-05-09 23:47:00,
2013-05-09 19:52:00,73.5,49.2,29.94,ESE,106,0.0,5.0,42,0.00,,OVC OVC///CB,0.01,WUHU216DAVISVP2,2013-05-09 23:52:00,
2013-05-09 19:57:00,73.2,48.3,29.94,ESE,105,0.0,2.0,41,0.00,,OVC OVC///CB,0.01,WUHU216DAVISVP2,2013-05-09 23:57:00,
2013-05-09 20:02:00,72.9,49.9,29.94,ESE,106,0.0,1.0,44,0.00,,OVC OVC///CB,0.01,WUHU216DAVISVP2,2013-05-10 00:02:00,
2013-05-09 20:07:00,72.5,47.6,29.94,ESE,106,0.0,1.0,41,0.00,,OVC OVC///CB,0.01,WUHU216DAVISVP2,2013-05-10 00:07:00,
2013-05-09 20:12:00,72.2,49.3,29.94,ESE,106,0.0,0.0,44,0.00,,OVC OVC///CB,0.01,WUHU216DAVISVP2,2013-05-10 00:12:00,
2013-05-09 20:17:00,71.9,48.4,29.94,ESE,106,0.0,1.0,43,0.00,,OVC OVC///CB,0.01,WUHU216DAVISVP2,2013-05-10 00:17:00,
2013-05-09 20:22:00,71.7,47.6,29.94,ESE,106,0.0,1.0,42,0.00,,OVC OVC///CB,0.01,WUHU216DAVISVP2,2013-05-10 00:22:00,
2013-05-09 20:27:00,71.6,47.5,29.94,ESE,106,0.0,1.0,42,0.00,,OVC OVC///CB,0.01,WUHU216DAVISVP2,2013-05-10 00:27:00,
2013-05-09 20:32:00,71.5,48.6,29.94,ESE,106,0.0,1.0,44,0.00,,OVC OVC///CB,0.01,WUHU216DAVISVP2,2013-05-10 00:32:00,
2013-05-09 20:37:00,71.2,48.4,29.94,ESE,106,0.0,1.0,44,0.00,,OVC OVC///CB,0.01,WUHU216DAVISVP2,2013-05-10 00:37:00,
2013-05-09 20:42:00,70.7,48.5,29.94,ESE,106,0.0,1.0,45,0.00,,OVC OVC///CB,0.01,WUHU216DAVISVP2,2013-05-10 00:42:00,
2013-05-09 20:47:00,70.3,48.2,29.94,ESE,105,0.0,1.0,45,0.00,,OVC OVC///CB,0.01,WUHU216DAVISVP2,2013-05-10 00:47:00,
2013-05-09 20:52:00,70.0,47.9,29.94,ESE,106,0.0,1.0,45,0.00,,OVC OVC///CB,0.01,WUHU216DAVISVP2,2013-05-10 00:52:00,
2013-05-09 20:57:00,69.7,45.7,29.94,SSW,194,0.0,1.0,42,0.00,,OVC OVC///CB,0.01,WUHU216DAVISVP2,2013-05-10 00:57:00,
2013-05-09 21:02:00,69.7,45.7,29.94,SSW,194,0.0,0.0,42,0.00,,OVC OVC///CB,0.01,WUHU216DAVISVP2,2013-05-10 01:02:00,
2013-05-09 21:07:00,69.6,46.3,29.94,SSW,194,0.0,0.0,43,0.00,,OVC OVC///CB,0.01,WUHU216DAVISVP2,2013-05-10 01:07:00,
2013-05-09 21:12:00,69.5,46.2,29.94,South,172,0.0,1.0,43,0.00,,OVC OVC///CB,0.01,WUHU216DAVISVP2,2013-05-10 01:12:00,
2013-05-09 21:17:00,69.3,46.6,29.94,South,172,0.0,1.0,44,0.00,,OVC OVC///CB,0.01,WUHU216DAVISVP2,2013-05-10 01:17:00,
2013-05-09 21:22:00,68.8,47.4,29.94,South,172,0.0,1.0,46,0.00,,OVC OVC///CB,0.01,WUHU216DAVISVP2,2013-05-10 01:22:00,
2013-05-09 21:27:00,68.5,45.3,29.94,South,172,0.0,1.0,43,0.00,,OVC OVC///CB,0.01,WUHU216DAVISVP2,2013-05-10 01:27:00,
2013-05-09 21:32:00,68.4,45.8,29.94,South,172,0.0,0.0,44,0.00,,OVC OVC///CB,0.01,WUHU216DAVISVP2,2013-05-10 01:32:00,
2013-05-09 21:37:00,68.0,45.5,29.95,South,172,0.0,0.0,44,0.00,,OVC OVC///CB,0.01,WUHU216DAVISVP2,2013-05-10 01:37:00,
2013-05-09 21:42:00,67.6,46.3,29.94,South,172,0.0,0.0,46,0.00,,OVC OVC///CB,0.01,WUHU216DAVISVP2,2013-05-10 01:42:00,
2013-05-09 21:47:00,67.3,46.0,29.95,South,172,0.0,0.0,46,0.00,,OVC OVC///CB,0.01,WUHU216DAVISVP2,2013-05-10 01:47:00,
2013-05-09 21:52:00,67.2,46.5,29.95,South,172,0.0,0.0,47,0.00,,OVC OVC///CB,0.01,WUHU216DAVISVP2,2013-05-10 01:52:00,
2013-05-09 21:57:00,66.9,46.8,29.95,South,172,0.0,0.0,48,0.00,,OVC OVC///CB,0.01,WUHU216DAVISVP2,2013-05-10 01:57:00,
2013-05-09 22:02:00,66.8,46.1,29.95,South,172,0.0,0.0,47,0.00,,OVC OVC///CB,0.01,WUHU216DAVISVP2,2013-05-10 02:02:00,
2013-05-09 22:07:00,66.5,46.4,29.95,South,172,0.0,0.0,48,0.00,,OVC OVC///CB,0.01,WUHU216DAVISVP2,2013-05-10 02:07:00,
2013-05-09 22:12:00,66.4,46.3,29.95,South,172,0.0,0.0,48,0.00,,OVC OVC///CB,0.01,WUHU216DAVISVP2,2013-05-10 02:12:00,
2013-05-09 22:17:00,66.3,46.2,29.95,South,172,0.0,0.0,48,0.00,,OVC OVC///CB,0.01,WUHU216DAVISVP2,2013-05-10 02:17:00,
2013-05-09 22:22:00,66.3,46.8,29.95,South,172,0.0,0.0,49,0.00,,OVC OVC///CB,0.01,WUHU216DAVISVP2,2013-05-10 02:22:00,
2013-05-09 22:27:00,66.3,47.4,29.95,South,172,0.0,0.0,50,0.00,,OVC OVC///CB,0.01,WUHU216DAVISVP2,2013-05-10 02:27:00,
2013-05-09 22:32:00,66.1,47.2,29.95,South,172,0.0,0.0,50,0.00,,OVC OVC///CB,0.01,WUHU216DAVISVP2,2013-05-10 02:32:00,
2013-05-09 22:37:00,65.8,47.4,29.95,South,172,0.0,0.0,51,0.00,,OVC OVC///CB,0.01,WUHU216DAVISVP2,2013-05-10 02:37:00,
2013-05-09 22:42:00,65.6,48.3,29.95,South,172,0.0,0.0,53,0.00,,OVC OVC///CB,0.01,WUHU216DAVISVP2,2013-05-10 02:42:00,
2013-05-09 22:47:00,65.5,48.7,29.95,South,172,0.0,0.0,54,0.00,,OVC OVC///CB,0.01,WUHU216DAVISVP2,2013-05-10 02:47:00,
2013-05-09 22:52:00,65.5,49.2,29.95,South,172,0.0,0.0,55,0.00,,OVC OVC///CB,0.01,WUHU216DAVISVP2,2013-05-10 02:52:00,
2013-05-09 22:57:00,65.3,50.0,29.95,South,172,0.0,0.0,57,0.00,,OVC OVC///CB,0.01,WUHU216DAVISVP2,2013-05-10 02:57:00,
2013-05-09 23:02:00,65.2,50.4,29.95,South,173,0.0,1.0,58,0.00,,OVC OVC///CB,0.01,WUHU216DAVISVP2,2013-05-10 03:02:00,
2013-05-09 23:07:00,65.0,51.1,29.95,South,173,0.0,1.0,60,0.00,,OVC OVC///CB,0.01,WUHU216DAVISVP2,2013-05-10 03:07:00,
2013-05-09 23:12:00,64.8,51.4,29.95,South,173,0.0,1.0,61,0.00,,OVC OVC///CB,0.01,WUHU216DAVISVP2,2013-05-10 03:12:00,
2013-05-09 23:17:00,64.5,51.1,29.95,South,173,0.0,1.0,61,0.00,,OVC OVC///CB,0.01,WUHU216DAVISVP2,2013-05-10 03:17:00,
2013-05-09 23:22:00,64.4,51.4,29.95,South,173,0.0,0.0,62,0.00,,OVC OVC///CB,0.01,WUHU216DAVISVP2,2013-05-10 03:22:00,
2013-05-09 23:27:00,64.5,52.4,29.95,South,173,0.0,0.0,64,0.00,,OVC OVC///CB,0.01,WUHU216DAVISVP2,2013-05-10 03:27:00,
2013-05-09 23:32:00,64.4,52.3,29.95,South,173,0.0,0.0,64,0.00,,OVC OVC///CB,0.01,WUHU216DAVISVP2,2013-05-10 03:32:00,
2013-05-09 23:37:00,64.2,52.1,29.94,South,173,0.0,0.0,64,0.00,,OVC OVC///CB,0.01,WUHU216DAVISVP2,2013-05-10 03:37:00,
2013-05-09 23:42:00,63.8,52.1,29.94,South,173,0.0,0.0,65,0.00,,OVC OVC///CB,0.01,WUHU216DAVISVP2,2013-05-10 03:42:00,
2013-05-09 23:47:00,63.9,53.0,29.95,South,173,0.0,0.0,67,0.00,,OVC OVC///CB,0.01,WUHU216DAVISVP2,2013-05-10 03:47:00,
2013-05-09 23:52:00,63.8,53.0,29.94,South,173,0.0,0.0,67,0.00,,OVC OVC///CB,0.01,WUHU216DAVISVP2,2013-05-10 03:52:00,
2013-05-09 23:57:00,63.7,53.3,29.94,South,173,0.0,0.0,68,0.00,,OVC OVC///CB,0.01,WUHU216DAVISVP2,2013-05-10 03:57:00,